sensor_id;sensor_type;location;lat;lon;timestamp;temperature;humidity
75985;DHT22;65033;44.660;37.758;2024-03-23T00:52:54;6.87;118.99
75985;DHT22;65033;44.660;37.758;2024-03-23T00:53:56;6.89;118.99
75985;DHT22;65033;44.660;37.758;2024-03-23T00:54:59;6.91;118.99
75985;DHT22;65033;44.660;37.758;2024-03-23T00:56:01;6.91;118.99
75985;DHT22;65033;44.660;37.758;2024-03-23T00:57:03;6.90;118.99
75985;DHT22;65033;44.660;37.758;2024-03-23T00:58:05;6.90;118.99
75985;DHT22;65033;44.660;37.758;2024-03-23T00:59:08;6.86;118.99
75985;DHT22;65033;44.660;37.758;2024-03-23T01:00:11;6.84;118.99
75985;DHT22;65033;44.660;37.758;2024-03-23T01:01:15;6.85;118.99
75985;DHT22;65033;44.660;37.758;2024-03-23T01:02:17;6.85;118.99
75985;DHT22;65033;44.660;37.758;2024-03-23T01:03:20;6.86;118.99
75985;DHT22;65033;44.660;37.758;2024-03-23T01:04:22;6.87;118.99
75985;DHT22;65033;44.660;37.758;2024-03-23T01:05:25;6.89;118.99
75985;DHT22;65033;44.660;37.758;2024-03-23T01:06:27;6.89;118.99
75985;DHT22;65033;44.660;37.758;2024-03-23T01:07:29;6.89;118.99
75985;DHT22;65033;44.660;37.758;2024-03-23T01:08:33;6.91;118.99
75985;DHT22;65033;44.660;37.758;2024-03-23T01:09:35;6.95;118.99
75985;DHT22;65033;44.660;37.758;2024-03-23T01:10:37;6.97;118.99
75985;DHT22;65033;44.660;37.758;2024-03-23T01:11:39;6.95;118.99
75985;DHT22;65033;44.660;37.758;2024-03-23T01:12:42;6.93;118.99
75985;DHT22;65033;44.660;37.758;2024-03-23T01:13:44;6.93;118.99
75985;DHT22;65033;44.660;37.758;2024-03-23T01:14:46;6.94;118.99
75985;DHT22;65033;44.660;37.758;2024-03-23T01:15:49;6.93;118.99
75985;DHT22;65033;44.660;37.758;2024-03-23T01:16:51;6.95;118.99
75985;DHT22;65033;44.660;37.758;2024-03-23T01:17:53;6.96;118.99
75985;DHT22;65033;44.660;37.758;2024-03-23T01:18:55;6.98;118.99
75985;DHT22;65033;44.660;37.758;2024-03-23T01:19:58;6.98;118.99
75985;DHT22;65033;44.660;37.758;2024-03-23T01:21:00;7.00;118.99
75985;DHT22;65033;44.660;37.758;2024-03-23T01:22:02;7.05;118.99
75985;DHT22;65033;44.660;37.758;2024-03-23T01:23:04;7.03;118.99
75985;DHT22;65033;44.660;37.758;2024-03-23T01:24:08;7.07;118.99
75985;DHT22;65033;44.660;37.758;2024-03-23T01:25:12;7.10;118.99
75985;DHT22;65033;44.660;37.758;2024-03-23T01:26:14;7.14;118.99
75985;DHT22;65033;44.660;37.758;2024-03-23T01:27:17;7.19;118.99
75985;DHT22;65033;44.660;37.758;2024-03-23T01:28:19;7.24;118.99
75985;DHT22;65033;44.660;37.758;2024-03-23T01:29:21;7.28;118.99
75985;DHT22;65033;44.660;37.758;2024-03-23T01:30:23;7.29;118.99
75985;DHT22;65033;44.660;37.758;2024-03-23T01:31:25;7.31;118.99
75985;DHT22;65033;44.660;37.758;2024-03-23T01:32:28;7.31;118.99
75985;DHT22;65033;44.660;37.758;2024-03-23T01:33:30;7.28;118.99
75985;DHT22;65033;44.660;37.758;2024-03-23T01:34:32;7.35;118.99
75985;DHT22;65033;44.660;37.758;2024-03-23T01:35:34;7.40;118.99
75985;DHT22;65033;44.660;37.758;2024-03-23T01:36:36;7.39;118.99
75985;DHT22;65033;44.660;37.758;2024-03-23T01:37:38;7.42;118.99
75985;DHT22;65033;44.660;37.758;2024-03-23T01:38:41;7.39;118.99
75985;DHT22;65033;44.660;37.758;2024-03-23T01:39:45;7.32;118.99
75985;DHT22;65033;44.660;37.758;2024-03-23T01:40:47;7.28;118.99
75985;DHT22;65033;44.660;37.758;2024-03-23T01:41:49;7.28;118.99
75985;DHT22;65033;44.660;37.758;2024-03-23T01:42:57;7.27;118.99
75985;DHT22;65033;44.660;37.758;2024-03-23T01:44:05;7.31;118.99
75985;DHT22;65033;44.660;37.758;2024-03-23T01:45:08;7.33;118.99
75985;DHT22;65033;44.660;37.758;2024-03-23T01:46:11;7.32;118.99
75985;DHT22;65033;44.660;37.758;2024-03-23T01:47:13;7.27;118.99
75985;DHT22;65033;44.660;37.758;2024-03-23T01:48:16;7.19;118.99
75985;DHT22;65033;44.660;37.758;2024-03-23T01:49:21;7.13;118.99
75985;DHT22;65033;44.660;37.758;2024-03-23T01:50:23;7.07;118.99
75985;DHT22;65033;44.660;37.758;2024-03-23T01:51:29;7.07;118.99
75985;DHT22;65033;44.660;37.758;2024-03-23T01:52:31;7.04;118.99
75985;DHT22;65033;44.660;37.758;2024-03-23T01:53:33;7.03;118.99
75985;DHT22;65033;44.660;37.758;2024-03-23T01:54:35;7.08;118.99
75985;DHT22;65033;44.660;37.758;2024-03-23T01:55:39;7.12;118.99
75985;DHT22;65033;44.660;37.758;2024-03-23T01:56:42;7.18;118.99
75985;DHT22;65033;44.660;37.758;2024-03-23T01:57:44;7.22;118.99
75985;DHT22;65033;44.660;37.758;2024-03-23T01:58:46;7.16;118.99
75985;DHT22;65033;44.660;37.758;2024-03-23T01:59:49;7.09;118.99
75985;DHT22;65033;44.660;37.758;2024-03-23T02:01:00;7.13;118.99
75985;DHT22;65033;44.660;37.758;2024-03-23T02:02:03;7.14;118.99
75985;DHT22;65033;44.660;37.758;2024-03-23T02:03:23;7.08;118.99
75985;DHT22;65033;44.660;37.758;2024-03-23T02:04:26;7.00;118.99
75985;DHT22;65033;44.660;37.758;2024-03-23T02:05:28;6.95;118.99
75985;DHT22;65033;44.660;37.758;2024-03-23T02:06:30;6.98;118.99
75985;DHT22;65033;44.660;37.758;2024-03-23T02:07:33;6.99;118.99
75985;DHT22;65033;44.660;37.758;2024-03-23T02:08:36;6.96;118.99
75985;DHT22;65033;44.660;37.758;2024-03-23T02:09:38;6.93;118.99
75985;DHT22;65033;44.660;37.758;2024-03-23T02:10:42;6.96;118.99
75985;DHT22;65033;44.660;37.758;2024-03-23T02:11:44;6.99;118.99
75985;DHT22;65033;44.660;37.758;2024-03-23T02:12:46;7.05;118.99
75985;DHT22;65033;44.660;37.758;2024-03-23T02:13:48;7.11;118.99
75985;DHT22;65033;44.660;37.758;2024-03-23T02:14:51;7.16;118.99
75985;DHT22;65033;44.660;37.758;2024-03-23T02:15:53;7.22;118.99
75985;DHT22;65033;44.660;37.758;2024-03-23T02:16:55;7.25;118.99
75985;DHT22;65033;44.660;37.758;2024-03-23T02:17:57;7.30;118.99
75985;DHT22;65033;44.660;37.758;2024-03-23T02:18:59;7.33;118.99
75985;DHT22;65033;44.660;37.758;2024-03-23T02:20:02;7.34;118.99
75985;DHT22;65033;44.660;37.758;2024-03-23T02:21:05;7.31;118.99
75985;DHT22;65033;44.660;37.758;2024-03-23T02:22:07;7.26;118.99
75985;DHT22;65033;44.660;37.758;2024-03-23T02:23:17;7.18;118.99
75985;DHT22;65033;44.660;37.758;2024-03-23T02:24:22;7.14;118.99
75985;DHT22;65033;44.660;37.758;2024-03-23T02:25:24;7.10;118.99
75985;DHT22;65033;44.660;37.758;2024-03-23T02:26:26;7.07;118.99
75985;DHT22;65033;44.660;37.758;2024-03-23T02:27:28;7.02;118.99
75985;DHT22;65033;44.660;37.758;2024-03-23T02:28:31;7.02;118.99
75985;DHT22;65033;44.660;37.758;2024-03-23T02:29:33;6.98;118.99
75985;DHT22;65033;44.660;37.758;2024-03-23T02:30:35;6.94;118.99
75985;DHT22;65033;44.660;37.758;2024-03-23T02:31:37;6.93;118.99
75985;DHT22;65033;44.660;37.758;2024-03-23T02:32:39;6.90;118.99
75985;DHT22;65033;44.660;37.758;2024-03-23T02:33:41;6.89;118.99
75985;DHT22;65033;44.660;37.758;2024-03-23T02:34:44;6.87;118.99
75985;DHT22;65033;44.660;37.758;2024-03-23T02:35:46;6.89;118.99
75985;DHT22;65033;44.660;37.758;2024-03-23T02:36:49;6.88;118.99
75985;DHT22;65033;44.660;37.758;2024-03-23T02:37:51;6.86;118.99
75985;DHT22;65033;44.660;37.758;2024-03-23T02:38:55;6.88;118.99
75985;DHT22;65033;44.660;37.758;2024-03-23T02:39:57;6.91;118.99
75985;DHT22;65033;44.660;37.758;2024-03-23T02:41:02;6.94;118.99
75985;DHT22;65033;44.660;37.758;2024-03-23T02:42:05;6.95;118.99
75985;DHT22;65033;44.660;37.758;2024-03-23T02:43:07;6.97;118.99
75985;DHT22;65033;44.660;37.758;2024-03-23T02:44:09;7.02;118.99
75985;DHT22;65033;44.660;37.758;2024-03-23T02:45:13;7.02;118.99
75985;DHT22;65033;44.660;37.758;2024-03-23T02:46:16;7.05;118.99
75985;DHT22;65033;44.660;37.758;2024-03-23T02:47:18;7.07;118.99
75985;DHT22;65033;44.660;37.758;2024-03-23T02:48:20;7.07;118.99
75985;DHT22;65033;44.660;37.758;2024-03-23T02:49:22;7.09;118.99
75985;DHT22;65033;44.660;37.758;2024-03-23T02:50:25;7.08;118.99
75985;DHT22;65033;44.660;37.758;2024-03-23T02:51:27;7.05;118.99
75985;DHT22;65033;44.660;37.758;2024-03-23T02:52:29;7.03;118.99
75985;DHT22;65033;44.660;37.758;2024-03-23T02:53:31;7.02;118.99
75985;DHT22;65033;44.660;37.758;2024-03-23T02:54:35;6.99;118.99
75985;DHT22;65033;44.660;37.758;2024-03-23T02:55:42;6.98;118.99
75985;DHT22;65033;44.660;37.758;2024-03-23T02:56:44;6.98;118.99
75985;DHT22;65033;44.660;37.758;2024-03-23T02:57:46;7.00;118.99
75985;DHT22;65033;44.660;37.758;2024-03-23T02:58:49;6.99;118.99
75985;DHT22;65033;44.660;37.758;2024-03-23T02:59:51;7.00;118.99
75985;DHT22;65033;44.660;37.758;2024-03-23T03:00:53;7.02;118.99
75985;DHT22;65033;44.660;37.758;2024-03-23T03:01:55;7.01;118.99
75985;DHT22;65033;44.660;37.758;2024-03-23T03:02:58;7.00;118.99
75985;DHT22;65033;44.660;37.758;2024-03-23T03:04:01;7.05;118.99
75985;DHT22;65033;44.660;37.758;2024-03-23T03:05:03;7.03;118.99
75985;DHT22;65033;44.660;37.758;2024-03-23T03:06:06;7.04;118.99
75985;DHT22;65033;44.660;37.758;2024-03-23T03:07:09;7.01;118.99
75985;DHT22;65033;44.660;37.758;2024-03-23T03:08:11;7.01;118.99
75985;DHT22;65033;44.660;37.758;2024-03-23T03:09:13;7.01;118.99
75985;DHT22;65033;44.660;37.758;2024-03-23T03:10:17;6.99;118.99
75985;DHT22;65033;44.660;37.758;2024-03-23T03:11:19;6.99;118.99
75985;DHT22;65033;44.660;37.758;2024-03-23T03:12:21;7.00;118.99
75985;DHT22;65033;44.660;37.758;2024-03-23T03:13:23;6.99;118.99
75985;DHT22;65033;44.660;37.758;2024-03-23T03:14:26;7.00;118.99
75985;DHT22;65033;44.660;37.758;2024-03-23T03:15:28;7.04;118.99
75985;DHT22;65033;44.660;37.758;2024-03-23T03:16:30;7.03;118.99
75985;DHT22;65033;44.660;37.758;2024-03-23T03:17:32;7.08;118.99
75985;DHT22;65033;44.660;37.758;2024-03-23T03:18:34;7.11;118.99
75985;DHT22;65033;44.660;37.758;2024-03-23T03:19:37;7.15;118.99
75985;DHT22;65033;44.660;37.758;2024-03-23T03:20:40;7.20;118.99
75985;DHT22;65033;44.660;37.758;2024-03-23T03:21:42;7.20;118.99
75985;DHT22;65033;44.660;37.758;2024-03-23T03:22:44;7.23;118.99
75985;DHT22;65033;44.660;37.758;2024-03-23T03:23:46;7.25;118.99
75985;DHT22;65033;44.660;37.758;2024-03-23T03:24:52;7.29;118.99
75985;DHT22;65033;44.660;37.758;2024-03-23T03:25:55;7.24;118.99
75985;DHT22;65033;44.660;37.758;2024-03-23T03:26:57;7.24;118.99
75985;DHT22;65033;44.660;37.758;2024-03-23T03:28:00;7.30;118.99
75985;DHT22;65033;44.660;37.758;2024-03-23T03:29:03;7.35;118.99
75985;DHT22;65033;44.660;37.758;2024-03-23T03:30:06;7.37;118.99
75985;DHT22;65033;44.660;37.758;2024-03-23T03:31:10;7.39;118.99
75985;DHT22;65033;44.660;37.758;2024-03-23T03:32:12;7.43;118.99
75985;DHT22;65033;44.660;37.758;2024-03-23T03:33:15;7.35;118.99
75985;DHT22;65033;44.660;37.758;2024-03-23T03:34:17;7.37;118.99
75985;DHT22;65033;44.660;37.758;2024-03-23T03:35:19;7.38;118.99
75985;DHT22;65033;44.660;37.758;2024-03-23T03:36:21;7.37;118.99
75985;DHT22;65033;44.660;37.758;2024-03-23T03:37:24;7.38;118.99
75985;DHT22;65033;44.660;37.758;2024-03-23T03:38:26;7.41;118.99
75985;DHT22;65033;44.660;37.758;2024-03-23T03:39:28;7.38;118.99
75985;DHT22;65033;44.660;37.758;2024-03-23T03:40:31;7.34;118.99
75985;DHT22;65033;44.660;37.758;2024-03-23T03:41:34;7.35;118.99
75985;DHT22;65033;44.660;37.758;2024-03-23T03:42:36;7.40;118.99
75985;DHT22;65033;44.660;37.758;2024-03-23T03:43:39;7.34;118.99
75985;DHT22;65033;44.660;37.758;2024-03-23T03:44:41;7.31;118.99
75985;DHT22;65033;44.660;37.758;2024-03-23T03:45:51;7.29;118.99
75985;DHT22;65033;44.660;37.758;2024-03-23T03:46:53;7.25;118.99
75985;DHT22;65033;44.660;37.758;2024-03-23T03:47:56;7.25;118.99
75985;DHT22;65033;44.660;37.758;2024-03-23T03:48:58;7.20;118.99
75985;DHT22;65033;44.660;37.758;2024-03-23T03:50:00;7.20;118.99
75985;DHT22;65033;44.660;37.758;2024-03-23T03:51:02;7.18;118.99
75985;DHT22;65033;44.660;37.758;2024-03-23T03:52:05;7.16;118.99
75985;DHT22;65033;44.660;37.758;2024-03-23T03:53:08;7.16;118.99
75985;DHT22;65033;44.660;37.758;2024-03-23T03:54:10;7.16;118.99
75985;DHT22;65033;44.660;37.758;2024-03-23T03:55:14;7.15;118.99
75985;DHT22;65033;44.660;37.758;2024-03-23T03:56:16;7.18;118.99
75985;DHT22;65033;44.660;37.758;2024-03-23T03:57:20;7.18;118.99
75985;DHT22;65033;44.660;37.758;2024-03-23T03:58:22;7.23;118.99
75985;DHT22;65033;44.660;37.758;2024-03-23T03:59:25;7.26;118.99
75985;DHT22;65033;44.660;37.758;2024-03-23T04:00:27;7.31;118.99
75985;DHT22;65033;44.660;37.758;2024-03-23T04:01:30;7.35;118.99
75985;DHT22;65033;44.660;37.758;2024-03-23T04:02:32;7.37;118.99
75985;DHT22;65033;44.660;37.758;2024-03-23T04:03:34;7.34;118.99
75985;DHT22;65033;44.660;37.758;2024-03-23T04:04:37;7.37;118.99
75985;DHT22;65033;44.660;37.758;2024-03-23T04:05:40;7.42;118.99
75985;DHT22;65033;44.660;37.758;2024-03-23T04:06:43;7.43;118.99
75985;DHT22;65033;44.660;37.758;2024-03-23T04:07:45;7.49;118.99
75985;DHT22;65033;44.660;37.758;2024-03-23T04:08:48;7.49;118.99
75985;DHT22;65033;44.660;37.758;2024-03-23T04:09:50;8.58;118.99
75985;DHT22;65033;44.660;37.758;2024-03-23T04:10:53;9.90;118.99
75985;DHT22;65033;44.660;37.758;2024-03-23T04:11:55;9.52;118.99
75985;DHT22;65033;44.660;37.758;2024-03-23T04:12:58;9.25;118.99
75985;DHT22;65033;44.660;37.758;2024-03-23T04:14:01;8.93;118.99
75985;DHT22;65033;44.660;37.758;2024-03-23T04:15:03;8.73;118.99
75985;DHT22;65033;44.660;37.758;2024-03-23T04:16:07;8.51;118.99
75985;DHT22;65033;44.660;37.758;2024-03-23T04:17:09;8.34;118.99
75985;DHT22;65033;44.660;37.758;2024-03-23T04:18:11;8.21;118.99
75985;DHT22;65033;44.660;37.758;2024-03-23T04:19:13;8.09;118.99
75985;DHT22;65033;44.660;37.758;2024-03-23T04:20:16;7.94;118.99
75985;DHT22;65033;44.660;37.758;2024-03-23T04:21:18;7.88;118.99
75985;DHT22;65033;44.660;37.758;2024-03-23T04:22:20;7.87;118.99
75985;DHT22;65033;44.660;37.758;2024-03-23T04:23:23;7.86;118.99
75985;DHT22;65033;44.660;37.758;2024-03-23T04:24:25;7.85;118.99
75985;DHT22;65033;44.660;37.758;2024-03-23T04:25:28;7.84;118.99
75985;DHT22;65033;44.660;37.758;2024-03-23T04:26:30;7.81;118.99
75985;DHT22;65033;44.660;37.758;2024-03-23T04:27:32;7.76;118.99
75985;DHT22;65033;44.660;37.758;2024-03-23T04:28:36;7.72;118.99
75985;DHT22;65033;44.660;37.758;2024-03-23T04:29:38;7.74;118.99
75985;DHT22;65033;44.660;37.758;2024-03-23T04:30:40;7.75;118.99
75985;DHT22;65033;44.660;37.758;2024-03-23T04:31:42;7.78;118.99
75985;DHT22;65033;44.660;37.758;2024-03-23T04:32:45;7.74;118.99
75985;DHT22;65033;44.660;37.758;2024-03-23T04:33:50;7.71;118.99
75985;DHT22;65033;44.660;37.758;2024-03-23T04:34:52;7.70;118.99
75985;DHT22;65033;44.660;37.758;2024-03-23T04:35:55;7.71;118.99
75985;DHT22;65033;44.660;37.758;2024-03-23T04:36:57;7.76;118.99
75985;DHT22;65033;44.660;37.758;2024-03-23T04:37:59;7.81;118.99
75985;DHT22;65033;44.660;37.758;2024-03-23T04:39:02;7.83;118.99
75985;DHT22;65033;44.660;37.758;2024-03-23T04:40:05;7.88;118.99
75985;DHT22;65033;44.660;37.758;2024-03-23T04:41:07;7.94;118.99
75985;DHT22;65033;44.660;37.758;2024-03-23T04:42:09;7.93;118.99
75985;DHT22;65033;44.660;37.758;2024-03-23T04:43:12;7.86;118.99
75985;DHT22;65033;44.660;37.758;2024-03-23T04:44:15;7.85;118.99
75985;DHT22;65033;44.660;37.758;2024-03-23T04:45:18;7.86;118.99
75985;DHT22;65033;44.660;37.758;2024-03-23T04:46:20;7.79;118.99
75985;DHT22;65033;44.660;37.758;2024-03-23T04:47:23;7.75;118.99
75985;DHT22;65033;44.660;37.758;2024-03-23T04:48:25;7.70;118.99
75985;DHT22;65033;44.660;37.758;2024-03-23T04:49:28;7.65;118.99
75985;DHT22;65033;44.660;37.758;2024-03-23T04:50:31;7.65;118.99
75985;DHT22;65033;44.660;37.758;2024-03-23T04:51:36;7.65;118.99
75985;DHT22;65033;44.660;37.758;2024-03-23T04:52:43;7.64;118.99
75985;DHT22;65033;44.660;37.758;2024-03-23T04:53:45;7.70;118.99
75985;DHT22;65033;44.660;37.758;2024-03-23T04:54:48;7.67;118.99
75985;DHT22;65033;44.660;37.758;2024-03-23T04:55:50;8.66;118.99
75985;DHT22;65033;44.660;37.758;2024-03-23T04:56:52;9.37;118.99
75985;DHT22;65033;44.660;37.758;2024-03-23T04:57:54;9.06;118.99
75985;DHT22;65033;44.660;37.758;2024-03-23T04:58:56;8.91;118.99
75985;DHT22;65033;44.660;37.758;2024-03-23T05:00:08;8.71;118.99
75985;DHT22;65033;44.660;37.758;2024-03-23T05:01:19;8.59;118.99
75985;DHT22;65033;44.660;37.758;2024-03-23T05:02:22;8.49;118.99
75985;DHT22;65033;44.660;37.758;2024-03-23T05:03:24;8.37;118.99
75985;DHT22;65033;44.660;37.758;2024-03-23T05:04:27;8.28;118.99
75985;DHT22;65033;44.660;37.758;2024-03-23T05:05:30;8.24;118.99
75985;DHT22;65033;44.660;37.758;2024-03-23T05:06:32;8.20;118.99
75985;DHT22;65033;44.660;37.758;2024-03-23T05:07:36;8.09;118.99
75985;DHT22;65033;44.660;37.758;2024-03-23T05:08:38;8.05;118.99
75985;DHT22;65033;44.660;37.758;2024-03-23T05:09:40;8.01;118.99
75985;DHT22;65033;44.660;37.758;2024-03-23T05:10:42;7.99;118.99
75985;DHT22;65033;44.660;37.758;2024-03-23T05:11:45;7.94;118.99
75985;DHT22;65033;44.660;37.758;2024-03-23T05:12:47;7.94;118.99
75985;DHT22;65033;44.660;37.758;2024-03-23T05:13:49;7.89;118.99
75985;DHT22;65033;44.660;37.758;2024-03-23T05:14:54;7.87;118.99
75985;DHT22;65033;44.660;37.758;2024-03-23T05:16:01;7.82;118.99
75985;DHT22;65033;44.660;37.758;2024-03-23T05:17:03;7.78;118.99
75985;DHT22;65033;44.660;37.758;2024-03-23T05:18:06;7.78;118.99
75985;DHT22;65033;44.660;37.758;2024-03-23T05:19:12;7.76;118.99
75985;DHT22;65033;44.660;37.758;2024-03-23T05:20:14;7.79;118.99
75985;DHT22;65033;44.660;37.758;2024-03-23T05:21:18;7.85;118.99
75985;DHT22;65033;44.660;37.758;2024-03-23T05:22:26;7.87;118.99
75985;DHT22;65033;44.660;37.758;2024-03-23T05:23:29;7.87;118.99
75985;DHT22;65033;44.660;37.758;2024-03-23T05:24:31;7.86;118.99
75985;DHT22;65033;44.660;37.758;2024-03-23T05:25:33;8.71;118.99
75985;DHT22;65033;44.660;37.758;2024-03-23T05:26:36;9.69;118.99
75985;DHT22;65033;44.660;37.758;2024-03-23T05:27:38;9.41;118.99
75985;DHT22;65033;44.660;37.758;2024-03-23T05:28:40;9.17;118.99
75985;DHT22;65033;44.660;37.758;2024-03-23T05:29:42;8.92;118.99
75985;DHT22;65033;44.660;37.758;2024-03-23T05:30:50;8.77;118.99
75985;DHT22;65033;44.660;37.758;2024-03-23T05:31:54;8.65;118.99
75985;DHT22;65033;44.660;37.758;2024-03-23T05:32:58;8.50;118.99
75985;DHT22;65033;44.660;37.758;2024-03-23T05:34:00;8.45;118.99
75985;DHT22;65033;44.660;37.758;2024-03-23T05:35:02;8.37;118.99
75985;DHT22;65033;44.660;37.758;2024-03-23T05:36:05;8.30;118.99
75985;DHT22;65033;44.660;37.758;2024-03-23T05:37:10;8.21;118.99
75985;DHT22;65033;44.660;37.758;2024-03-23T05:38:12;8.19;118.99
75985;DHT22;65033;44.660;37.758;2024-03-23T05:39:15;8.26;118.99
75985;DHT22;65033;44.660;37.758;2024-03-23T05:40:18;8.30;118.99
75985;DHT22;65033;44.660;37.758;2024-03-23T05:41:20;8.35;118.99
75985;DHT22;65033;44.660;37.758;2024-03-23T05:42:22;8.42;118.99
75985;DHT22;65033;44.660;37.758;2024-03-23T05:43:25;8.49;118.99
75985;DHT22;65033;44.660;37.758;2024-03-23T05:44:27;8.58;118.99
75985;DHT22;65033;44.660;37.758;2024-03-23T05:45:30;8.55;118.99
75985;DHT22;65033;44.660;37.758;2024-03-23T05:46:32;8.46;118.99
75985;DHT22;65033;44.660;37.758;2024-03-23T05:47:36;8.41;118.99
75985;DHT22;65033;44.660;37.758;2024-03-23T05:48:38;8.36;118.99
75985;DHT22;65033;44.660;37.758;2024-03-23T05:49:40;8.42;118.99
75985;DHT22;65033;44.660;37.758;2024-03-23T05:50:51;8.45;118.99
75985;DHT22;65033;44.660;37.758;2024-03-23T05:51:56;8.46;118.99
75985;DHT22;65033;44.660;37.758;2024-03-23T05:52:58;8.44;118.99
75985;DHT22;65033;44.660;37.758;2024-03-23T05:54:00;9.10;118.99
75985;DHT22;65033;44.660;37.758;2024-03-23T05:55:03;9.65;118.99
75985;DHT22;65033;44.660;37.758;2024-03-23T05:56:05;10.27;118.99
75985;DHT22;65033;44.660;37.758;2024-03-23T05:57:09;10.04;118.99
75985;DHT22;65033;44.660;37.758;2024-03-23T05:58:11;9.82;118.99
75985;DHT22;65033;44.660;37.758;2024-03-23T05:59:13;9.64;118.99
75985;DHT22;65033;44.660;37.758;2024-03-23T06:00:16;9.53;118.99
75985;DHT22;65033;44.660;37.758;2024-03-23T06:01:19;9.45;118.99
75985;DHT22;65033;44.660;37.758;2024-03-23T06:02:22;9.45;118.99
75985;DHT22;65033;44.660;37.758;2024-03-23T06:03:26;9.31;118.99
75985;DHT22;65033;44.660;37.758;2024-03-23T06:04:29;9.29;118.99
75985;DHT22;65033;44.660;37.758;2024-03-23T06:05:32;9.27;118.99
75985;DHT22;65033;44.660;37.758;2024-03-23T06:06:34;9.31;118.99
75985;DHT22;65033;44.660;37.758;2024-03-23T06:07:36;9.37;118.99
75985;DHT22;65033;44.660;37.758;2024-03-23T06:08:38;9.40;118.99
75985;DHT22;65033;44.660;37.758;2024-03-23T06:09:41;9.39;118.99
75985;DHT22;65033;44.660;37.758;2024-03-23T06:10:43;9.46;118.99
75985;DHT22;65033;44.660;37.758;2024-03-23T06:11:46;9.53;118.99
75985;DHT22;65033;44.660;37.758;2024-03-23T06:12:50;9.61;118.99
75985;DHT22;65033;44.660;37.758;2024-03-23T06:13:54;9.66;118.99
75985;DHT22;65033;44.660;37.758;2024-03-23T06:14:56;9.75;118.99
75985;DHT22;65033;44.660;37.758;2024-03-23T06:15:58;10.70;118.99
75985;DHT22;65033;44.660;37.758;2024-03-23T06:17:00;11.85;118.99
75985;DHT22;65033;44.660;37.758;2024-03-23T06:18:03;11.78;118.99
75985;DHT22;65033;44.660;37.758;2024-03-23T06:19:07;11.77;118.99
75985;DHT22;65033;44.660;37.758;2024-03-23T06:20:10;11.73;118.99
75985;DHT22;65033;44.660;37.758;2024-03-23T06:21:13;11.67;118.99
75985;DHT22;65033;44.660;37.758;2024-03-23T06:22:16;11.61;118.99
75985;DHT22;65033;44.660;37.758;2024-03-23T06:23:18;11.58;118.99
75985;DHT22;65033;44.660;37.758;2024-03-23T06:24:22;11.54;118.99
75985;DHT22;65033;44.660;37.758;2024-03-23T06:25:24;11.53;118.99
75985;DHT22;65033;44.660;37.758;2024-03-23T06:26:30;11.47;118.99
75985;DHT22;65033;44.660;37.758;2024-03-23T06:27:36;11.40;118.99
75985;DHT22;65033;44.660;37.758;2024-03-23T06:28:38;11.41;118.99
75985;DHT22;65033;44.660;37.758;2024-03-23T06:29:40;11.44;118.99
75985;DHT22;65033;44.660;37.758;2024-03-23T06:30:42;11.47;118.99
75985;DHT22;65033;44.660;37.758;2024-03-23T06:31:53;11.48;118.99
75985;DHT22;65033;44.660;37.758;2024-03-23T06:33:05;11.51;118.99
75985;DHT22;65033;44.660;37.758;2024-03-23T06:34:13;11.51;118.99
75985;DHT22;65033;44.660;37.758;2024-03-23T06:35:16;11.49;118.99
75985;DHT22;65033;44.660;37.758;2024-03-23T06:36:18;11.53;118.99
75985;DHT22;65033;44.660;37.758;2024-03-23T06:37:21;11.47;118.99
75985;DHT22;65033;44.660;37.758;2024-03-23T06:38:23;11.43;118.99
75985;DHT22;65033;44.660;37.758;2024-03-23T06:39:26;11.30;118.99
75985;DHT22;65033;44.660;37.758;2024-03-23T06:40:31;11.28;118.99
75985;DHT22;65033;44.660;37.758;2024-03-23T06:41:33;11.32;118.99
75985;DHT22;65033;44.660;37.758;2024-03-23T06:42:37;11.40;118.99
75985;DHT22;65033;44.660;37.758;2024-03-23T06:43:39;11.45;118.99
75985;DHT22;65033;44.660;37.758;2024-03-23T06:44:41;11.38;118.99
75985;DHT22;65033;44.660;37.758;2024-03-23T06:45:44;11.28;118.99
75985;DHT22;65033;44.660;37.758;2024-03-23T06:46:46;11.22;118.99
75985;DHT22;65033;44.660;37.758;2024-03-23T06:47:49;11.25;118.99
75985;DHT22;65033;44.660;37.758;2024-03-23T06:48:52;11.36;118.99
75985;DHT22;65033;44.660;37.758;2024-03-23T06:49:56;11.43;118.99
75985;DHT22;65033;44.660;37.758;2024-03-23T06:50:58;11.45;118.99
75985;DHT22;65033;44.660;37.758;2024-03-23T06:52:01;11.55;118.99
75985;DHT22;65033;44.660;37.758;2024-03-23T06:53:03;12.41;118.99
75985;DHT22;65033;44.660;37.758;2024-03-23T06:54:07;13.39;118.99
75985;DHT22;65033;44.660;37.758;2024-03-23T06:55:09;13.10;118.99
75985;DHT22;65033;44.660;37.758;2024-03-23T06:56:11;13.06;118.99
75985;DHT22;65033;44.660;37.758;2024-03-23T06:57:14;12.97;118.99
75985;DHT22;65033;44.660;37.758;2024-03-23T06:58:16;12.85;118.99
75985;DHT22;65033;44.660;37.758;2024-03-23T06:59:18;12.78;118.99
75985;DHT22;65033;44.660;37.758;2024-03-23T07:00:21;12.72;118.99
75985;DHT22;65033;44.660;37.758;2024-03-23T07:01:25;12.71;118.99
75985;DHT22;65033;44.660;37.758;2024-03-23T07:02:37;12.69;118.99
75985;DHT22;65033;44.660;37.758;2024-03-23T07:03:39;12.70;118.99
75985;DHT22;65033;44.660;37.758;2024-03-23T07:04:41;12.70;118.99
75985;DHT22;65033;44.660;37.758;2024-03-23T07:05:45;12.66;118.99
75985;DHT22;65033;44.660;37.758;2024-03-23T07:06:48;12.67;118.99
75985;DHT22;65033;44.660;37.758;2024-03-23T07:07:50;12.73;118.99
75985;DHT22;65033;44.660;37.758;2024-03-23T07:08:53;12.73;118.99
75985;DHT22;65033;44.660;37.758;2024-03-23T07:09:55;12.75;118.99
75985;DHT22;65033;44.660;37.758;2024-03-23T07:10:58;12.81;118.99
75985;DHT22;65033;44.660;37.758;2024-03-23T07:12:00;12.81;118.99
75985;DHT22;65033;44.660;37.758;2024-03-23T07:13:02;12.85;118.99
75985;DHT22;65033;44.660;37.758;2024-03-23T07:14:05;12.90;118.99
75985;DHT22;65033;44.660;37.758;2024-03-23T07:15:08;12.92;118.99
75985;DHT22;65033;44.660;37.758;2024-03-23T07:16:10;12.93;118.99
75985;DHT22;65033;44.660;37.758;2024-03-23T07:17:12;12.95;118.99
75985;DHT22;65033;44.660;37.758;2024-03-23T07:18:14;12.99;118.99
75985;DHT22;65033;44.660;37.758;2024-03-23T07:19:17;13.03;118.99
75985;DHT22;65033;44.660;37.758;2024-03-23T07:20:19;12.97;118.99
75985;DHT22;65033;44.660;37.758;2024-03-23T07:21:23;13.01;118.99
75985;DHT22;65033;44.660;37.758;2024-03-23T07:22:25;13.02;118.99